createdAt,value
2018-05-16T05:01:48.812Z,90.00
2018-05-16T05:04:20.693Z,90.00
2018-05-16T05:06:52.910Z,90.00
2018-05-16T05:09:24.794Z,86.60
2018-05-16T05:11:56.696Z,82.50
2018-05-16T05:14:28.575Z,81.70
2018-05-16T05:17:01.309Z,76.40
2018-05-16T05:19:33.180Z,76.40
2018-05-16T05:22:05.104Z,74.60
2018-05-16T05:24:36.982Z,74.60
2018-05-16T05:27:09.211Z,72.40
2018-05-16T05:29:41.105Z,71.70
2018-05-16T05:32:12.995Z,72.20
2018-05-16T05:34:44.893Z,70.20
2018-05-16T05:37:16.811Z,69.70
2018-05-16T05:39:48.689Z,69.40
2018-05-16T05:42:21.355Z,68.20
2018-05-16T05:44:54.042Z,66.00
2018-05-16T05:47:25.950Z,66.50
2018-05-16T05:49:57.845Z,67.60
2018-05-16T05:52:29.744Z,65.30
2018-05-16T05:55:02.425Z,65.00
2018-05-16T05:57:35.079Z,61.90
2018-05-16T06:00:06.979Z,61.80
2018-05-16T06:02:38.865Z,60.70
2018-05-16T06:05:11.534Z,58.00
2018-05-16T06:07:43.446Z,57.30
2018-05-16T06:10:16.091Z,57.80
2018-05-16T06:12:48.808Z,56.00
2018-05-16T06:15:20.648Z,56.00
2018-05-16T06:17:52.530Z,55.00
2018-05-16T06:20:26.115Z,55.40
2018-05-16T06:22:58.015Z,55.40
2018-05-16T06:25:29.902Z,57.70
2018-05-16T06:28:01.790Z,59.20
2018-05-16T06:30:33.882Z,59.10
2018-05-16T06:33:06.531Z,59.20
2018-05-16T06:35:38.407Z,59.20
2018-05-16T06:38:10.598Z,60.00
2018-05-16T06:40:42.511Z,60.90
2018-05-16T06:43:14.479Z,61.60
2018-05-16T06:45:46.439Z,59.80
2018-05-16T06:48:18.276Z,61.30
2018-05-16T06:50:50.158Z,60.80
2018-05-16T06:53:22.269Z,60.10
2018-05-16T06:55:54.175Z,58.80
2018-05-16T06:58:26.071Z,56.40
2018-05-16T07:00:58.719Z,55.80
2018-05-16T07:03:30.635Z,55.80
2018-05-16T07:06:02.530Z,54.60
2018-05-16T07:08:34.426Z,53.00
2018-05-16T07:11:07.096Z,56.90
2018-05-16T07:13:39.059Z,56.70
2018-05-16T07:16:10.877Z,57.40
2018-05-16T07:18:42.778Z,57.90
2018-05-16T07:21:14.672Z,58.30
2018-05-16T07:23:46.593Z,58.70
2018-05-16T07:26:18.496Z,59.90
2018-05-16T07:28:50.452Z,60.50
2018-05-16T07:31:22.518Z,59.70
2018-05-16T07:33:54.409Z,60.00
2018-05-16T07:36:26.285Z,60.30
2018-05-16T07:38:58.185Z,60.50
2018-05-16T07:41:30.858Z,58.40
2018-05-16T07:44:03.519Z,57.90
2018-05-16T07:46:35.424Z,57.90
2018-05-16T07:49:07.316Z,58.40
2018-05-16T07:51:39.209Z,58.40
2018-05-16T07:54:11.102Z,58.70
2018-05-16T07:56:42.982Z,56.80
2018-05-16T07:59:15.126Z,56.90
2018-05-16T08:01:47.016Z,57.30
2018-05-16T08:04:18.912Z,56.50
2018-05-16T08:06:50.796Z,57.00
2018-05-16T08:09:23.456Z,56.50
2018-05-16T08:11:55.331Z,56.50
2018-05-16T08:14:27.986Z,57.20
2018-05-16T08:17:00.193Z,57.20
2018-05-16T08:19:32.094Z,58.20
2018-05-16T08:22:03.982Z,58.50
2018-05-16T08:24:35.874Z,58.70
2018-05-16T08:27:07.764Z,58.00
2018-05-16T08:29:39.662Z,57.70
2018-05-16T08:32:11.556Z,58.20
2018-05-16T08:34:43.459Z,58.50
2018-05-16T08:37:15.339Z,58.50
2018-05-16T08:39:47.231Z,57.20
2018-05-16T08:42:19.125Z,55.90
2018-05-16T08:44:51.032Z,54.70
2018-05-16T08:47:22.906Z,55.50
2018-05-16T08:49:55.555Z,55.40
2018-05-16T08:52:27.439Z,55.40
2018-05-16T08:55:00.119Z,55.70
2018-05-16T08:57:32.763Z,55.80
2018-05-16T09:00:04.927Z,55.80
2018-05-16T09:02:37.145Z,56.00
2018-05-16T09:05:09.051Z,56.00
2018-05-16T09:07:40.940Z,56.50
2018-05-16T09:10:12.834Z,55.80
2018-05-16T09:12:44.723Z,56.40
2018-05-16T09:15:16.621Z,56.60
2018-05-16T09:17:48.511Z,56.80
2018-05-16T09:20:20.435Z,56.30
2018-05-16T09:22:52.334Z,56.20
2018-05-16T09:25:25.080Z,56.20
2018-05-16T09:27:56.968Z,56.20
2018-05-16T09:30:29.638Z,55.90
2018-05-16T09:33:02.319Z,55.40
2018-05-16T09:35:35.210Z,56.80
2018-05-16T09:38:07.384Z,56.60
2018-05-16T09:40:39.415Z,57.60
2018-05-16T09:43:11.400Z,58.80
2018-05-16T09:45:44.440Z,60.50
2018-05-16T09:48:16.329Z,60.50
2018-05-16T09:50:49.002Z,61.10
2018-05-16T09:53:21.664Z,60.50
2018-05-16T09:55:53.559Z,60.50
2018-05-16T09:58:26.351Z,60.00
2018-05-16T10:00:58.320Z,59.30
2018-05-16T10:03:30.207Z,59.90
2018-05-16T10:06:02.109Z,60.50
2018-05-16T10:08:34.810Z,58.60
2018-05-16T10:11:07.471Z,58.80
2018-05-16T10:13:40.198Z,57.50
2018-05-16T10:16:12.138Z,57.40
2018-05-16T10:18:44.082Z,58.00
2018-05-16T10:21:16.750Z,58.40
2018-05-16T10:23:48.750Z,58.30
2018-05-16T10:26:21.520Z,58.80
2018-05-16T10:28:53.469Z,58.40
2018-05-16T10:31:26.178Z,59.70
2018-05-16T10:33:58.081Z,60.20
2018-05-16T10:36:30.002Z,60.90
2018-05-16T10:39:01.959Z,62.30
2018-05-16T10:41:34.777Z,62.20
2018-05-16T10:44:06.627Z,62.50
2018-05-16T10:46:38.544Z,62.00
2018-05-16T10:49:11.200Z,62.00
2018-05-16T10:51:43.867Z,61.90
2018-05-16T10:54:15.782Z,61.80
2018-05-16T10:56:47.757Z,61.80
2018-05-16T10:59:19.715Z,62.50
2018-05-16T11:01:51.631Z,63.00
2018-05-16T11:04:24.275Z,61.30
2018-05-16T11:06:57.445Z,61.20
2018-05-16T11:09:29.342Z,61.50
2018-05-16T11:12:03.082Z,61.40
2018-05-16T11:14:35.246Z,61.40
2018-05-16T11:17:07.134Z,61.10
2018-05-16T11:19:39.022Z,61.20
2018-05-16T11:22:10.915Z,61.50
2018-05-16T11:24:43.711Z,61.50
2018-05-16T11:27:15.612Z,61.40
2018-05-16T11:29:47.494Z,60.70
2018-05-16T11:32:19.400Z,60.90
2018-05-16T11:34:51.276Z,59.10
2018-05-16T11:37:23.416Z,59.60
2018-05-16T11:39:55.307Z,59.60
2018-05-16T11:42:27.215Z,58.10
2018-05-16T11:44:59.077Z,58.50
2018-05-16T11:47:31.737Z,58.90
2018-05-16T11:50:03.614Z,58.90
2018-05-16T11:52:36.280Z,59.00
2018-05-16T11:55:08.174Z,58.90
2018-05-16T11:57:40.834Z,59.50
2018-05-16T12:00:13.490Z,59.70
2018-05-16T12:02:45.405Z,59.70
2018-05-16T12:05:18.282Z,59.70
2018-05-16T12:07:50.446Z,59.70
2018-05-16T12:10:22.322Z,58.80
2018-05-16T12:12:54.218Z,59.00
2018-05-16T12:15:26.435Z,59.00
2018-05-16T12:17:58.597Z,58.30
2018-05-16T12:20:30.490Z,58.70
2018-05-16T12:23:02.391Z,58.60
2018-05-16T12:25:34.268Z,59.00
2018-05-16T12:28:06.927Z,58.30
2018-05-16T12:30:39.586Z,58.60
2018-05-16T12:33:11.474Z,59.20
2018-05-16T12:35:44.126Z,58.90
2018-05-16T12:38:16.067Z,58.10
2018-05-16T12:40:47.970Z,57.60
2018-05-16T12:43:19.862Z,57.70
2018-05-16T12:45:51.761Z,57.50
2018-05-16T12:48:24.014Z,57.70
2018-05-16T12:50:55.901Z,56.20
2018-05-16T12:53:28.152Z,57.30
2018-05-16T12:56:00.003Z,57.80
2018-05-16T12:58:31.898Z,58.20
2018-05-16T13:01:03.790Z,57.60
2018-05-16T13:03:35.709Z,58.40
2018-05-16T13:06:07.600Z,59.20
2018-05-16T13:08:40.599Z,58.90
2018-05-16T13:11:12.476Z,58.80
2018-05-16T13:13:44.376Z,62.10
2018-05-16T13:16:16.263Z,65.70
2018-05-16T13:18:48.948Z,73.40
2018-05-16T13:21:21.649Z,74.20
2018-05-16T13:23:53.512Z,74.20
2018-05-16T13:26:25.381Z,77.10
2018-05-16T13:28:57.282Z,77.20
2018-05-16T13:31:29.162Z,78.80
2018-05-16T13:34:01.860Z,78.30
2018-05-16T13:36:33.742Z,78.40
2018-05-16T13:39:05.655Z,79.50
2018-05-16T13:41:37.525Z,79.20
2018-05-16T13:44:10.187Z,79.40
2018-05-16T13:46:42.070Z,79.30
2018-05-16T13:49:14.737Z,79.60
2018-05-16T13:51:47.379Z,79.80
2018-05-16T13:54:19.306Z,79.60
2018-05-16T13:56:51.186Z,78.70
2018-05-16T13:59:23.130Z,79.00
2018-05-16T14:01:55.019Z,81.10
2018-05-16T14:04:26.936Z,79.00
2018-05-16T14:06:58.814Z,78.30
2018-05-16T14:09:30.711Z,80.10
2018-05-16T14:12:02.586Z,80.30
2018-05-16T14:14:34.482Z,77.50
2018-05-16T14:17:06.367Z,78.60
2018-05-16T14:19:38.502Z,78.30
2018-05-16T14:22:10.670Z,78.70
2018-05-16T14:24:42.566Z,78.90
2018-05-16T14:27:14.449Z,76.00
2018-05-16T14:29:46.662Z,76.60
2018-05-16T14:32:18.529Z,76.90
2018-05-16T14:34:50.414Z,75.70
2018-05-16T14:37:22.310Z,77.30
2018-05-16T14:39:54.213Z,77.40
2018-05-16T14:42:26.089Z,76.50
2018-05-16T14:44:58.019Z,75.10
2018-05-16T14:47:30.665Z,72.30
2018-05-16T14:50:02.870Z,72.20
2018-05-16T14:52:34.748Z,72.30
2018-05-16T14:55:06.642Z,71.10
2018-05-16T14:57:38.520Z,69.80
2018-05-16T15:00:10.714Z,69.90
2018-05-16T15:02:42.589Z,70.00
2018-05-16T15:05:14.491Z,70.50
2018-05-16T15:07:46.640Z,69.90
2018-05-16T15:10:18.528Z,70.80
2018-05-16T15:12:50.414Z,70.20
2018-05-16T15:15:23.165Z,71.40
2018-05-16T15:17:55.037Z,71.40
2018-05-16T15:20:26.934Z,71.30
2018-05-16T15:22:59.919Z,69.60
2018-05-16T15:25:31.834Z,69.70
2018-05-16T15:28:04.042Z,69.90
2018-05-16T15:30:35.943Z,68.20
2018-05-16T15:33:07.877Z,69.10
2018-05-16T15:35:40.509Z,69.70
2018-05-16T15:38:12.383Z,69.60
2018-05-16T15:40:45.065Z,72.40
2018-05-16T15:43:17.961Z,71.50
2018-05-16T15:45:49.876Z,71.30
2018-05-16T15:48:21.748Z,70.70
2018-05-16T15:50:53.702Z,71.60
2018-05-16T15:53:25.578Z,70.60
2018-05-16T15:55:57.474Z,71.10
2018-05-16T15:58:29.631Z,70.50
2018-05-16T16:01:01.543Z,72.10
2018-05-16T16:03:33.664Z,72.20
2018-05-16T16:06:05.569Z,72.70
2018-05-16T16:08:37.448Z,72.00
2018-05-16T16:11:09.346Z,72.00
2018-05-16T16:13:41.227Z,72.30
2018-05-16T16:16:13.130Z,72.20
2018-05-16T16:18:45.012Z,71.80
2018-05-16T16:21:17.665Z,72.70
2018-05-16T16:23:49.870Z,72.60
2018-05-16T16:26:21.783Z,71.40
2018-05-16T16:28:53.662Z,71.60
2018-05-16T16:31:25.603Z,70.90
2018-05-16T16:33:57.494Z,71.20
2018-05-16T16:36:30.163Z,71.50
2018-05-16T16:39:02.393Z,71.50
2018-05-16T16:41:34.273Z,72.10
2018-05-16T16:44:06.150Z,71.60
2018-05-16T16:46:38.858Z,71.90
2018-05-16T16:49:10.743Z,71.90
2018-05-16T16:51:42.885Z,72.70
2018-05-16T16:54:14.782Z,72.70
2018-05-16T16:56:47.010Z,74.30
2018-05-16T16:59:18.887Z,74.80
2018-05-16T17:01:50.795Z,74.70
2018-05-16T17:04:22.690Z,77.20
2018-05-16T17:06:55.354Z,77.10
2018-05-16T17:09:28.014Z,79.90
2018-05-16T17:11:59.914Z,79.80
2018-05-16T17:14:31.786Z,79.50
2018-05-16T17:17:03.937Z,78.80
2018-05-16T17:19:36.102Z,77.30
2018-05-16T17:22:08.015Z,79.20
2018-05-16T17:24:39.894Z,86.30
2018-05-16T17:27:12.090Z,90.10
2018-05-16T17:29:44.198Z,93.30
2018-05-16T17:32:16.102Z,94.90
2018-05-16T17:34:48.752Z,96.90
2018-05-16T17:37:20.705Z,96.90
2018-05-16T17:39:52.822Z,98.30
2018-05-16T17:42:24.739Z,98.90
2018-05-16T17:44:56.614Z,98.40
2018-05-16T17:47:30.462Z,98.80
2018-05-16T17:50:02.358Z,98.60
2018-05-16T17:52:34.254Z,98.60
2018-05-16T17:55:07.154Z,99.30
2018-05-16T17:57:39.051Z,99.30
2018-05-16T18:00:10.934Z,99.90
2018-05-16T18:02:43.141Z,99.80
2018-05-16T18:05:15.023Z,99.90
2018-05-16T18:07:46.954Z,99.90
2018-05-16T18:10:19.601Z,99.90
2018-05-16T18:16:21.733Z,99.90
2018-05-16T18:18:53.899Z,99.90
2018-05-16T18:21:25.771Z,99.90
2018-05-16T18:23:57.678Z,99.90
2018-05-16T18:26:29.554Z,99.90
2018-05-16T18:29:02.210Z,99.90
2018-05-16T18:31:34.085Z,99.90
2018-05-16T18:34:06.282Z,99.90
2018-05-16T18:36:38.169Z,99.90
2018-05-16T18:39:10.074Z,99.90
2018-05-16T18:41:42.274Z,99.90
2018-05-16T18:44:14.450Z,99.90
2018-05-16T18:46:46.354Z,99.90
2018-05-16T18:49:18.626Z,99.90
2018-05-16T18:51:50.457Z,99.90
2018-05-16T18:54:22.454Z,99.90
2018-05-16T18:56:54.334Z,99.90
2018-05-16T18:59:27.006Z,99.90
2018-05-16T19:02:00.446Z,99.90
2018-05-16T19:04:32.353Z,99.90
2018-05-16T19:07:04.230Z,99.90
2018-05-16T19:09:36.907Z,99.90
2018-05-16T19:12:10.430Z,99.90
2018-05-16T19:14:42.925Z,99.90
2018-05-16T19:17:14.814Z,99.90
2018-05-16T19:19:46.787Z,99.90
2018-05-16T19:22:18.609Z,99.90
2018-05-16T19:24:50.515Z,99.90
2018-05-16T19:27:23.165Z,99.90
2018-05-16T19:29:55.075Z,99.90
2018-05-16T19:32:27.728Z,99.90
2018-05-16T19:34:59.926Z,99.90
2018-05-16T19:37:31.802Z,99.90
2018-05-16T19:40:03.707Z,99.90
2018-05-16T19:42:35.603Z,99.90
2018-05-16T19:45:07.534Z,99.90
2018-05-16T19:47:39.415Z,99.90
2018-05-16T19:50:12.078Z,99.90
2018-05-16T19:52:43.960Z,99.90
2018-05-16T19:55:16.614Z,99.90
2018-05-16T19:57:48.494Z,99.90
2018-05-16T20:00:21.169Z,99.90
2018-05-16T20:02:53.823Z,99.90
2018-05-16T20:05:25.724Z,99.90
2018-05-16T20:07:57.607Z,99.90
2018-05-16T20:10:29.751Z,99.90
2018-05-16T20:13:01.618Z,99.90
2018-05-16T20:15:33.523Z,99.90
2018-05-16T20:18:05.407Z,99.90
2018-05-16T20:20:37.597Z,99.90
2018-05-16T20:23:09.474Z,99.90
2018-05-16T20:25:41.618Z,99.90
2018-05-16T20:28:13.501Z,99.90
2018-05-16T20:30:45.410Z,99.90
2018-05-16T20:33:17.286Z,99.90
2018-05-16T20:35:49.953Z,99.90
2018-05-16T20:38:21.836Z,99.90
2018-05-16T20:40:53.737Z,99.90
2018-05-16T20:43:25.618Z,99.90
2018-05-16T20:45:57.510Z,99.90
2018-05-16T20:48:30.162Z,99.90
2018-05-16T20:51:02.094Z,99.90
2018-05-16T20:53:38.492Z,99.90
2018-05-16T20:56:10.474Z,99.90
2018-05-16T20:58:43.120Z,99.90
2018-05-16T21:01:15.026Z,99.90
2018-05-16T21:03:46.904Z,99.90
2018-05-16T21:06:19.050Z,99.90
2018-05-16T21:08:50.928Z,99.90
2018-05-16T21:11:22.859Z,99.90
2018-05-16T21:13:54.747Z,99.90
2018-05-16T21:16:26.638Z,99.90
2018-05-16T21:18:58.522Z,99.90
2018-05-16T21:21:30.414Z,99.90
2018-05-16T21:24:02.582Z,99.90
2018-05-16T21:26:34.755Z,99.90
2018-05-16T21:29:06.635Z,99.90
2018-05-16T21:31:38.530Z,99.90
